sensor_id;sensor_type;location;lat;lon;timestamp;temperature;humidity
7576;DHT22;3829;50.798;4.358;2023-05-07T00:01:24;16.90;99.90
7576;DHT22;3829;50.798;4.358;2023-05-07T00:03:50;16.90;99.90
7576;DHT22;3829;50.798;4.358;2023-05-07T00:06:15;16.90;99.90
7576;DHT22;3829;50.798;4.358;2023-05-07T00:08:41;16.90;99.90
7576;DHT22;3829;50.798;4.358;2023-05-07T00:11:06;16.90;99.90
7576;DHT22;3829;50.798;4.358;2023-05-07T00:13:32;17.00;99.90
7576;DHT22;3829;50.798;4.358;2023-05-07T00:16:01;17.00;99.90
7576;DHT22;3829;50.798;4.358;2023-05-07T00:18:27;17.10;99.90
7576;DHT22;3829;50.798;4.358;2023-05-07T00:20:53;17.20;99.90
7576;DHT22;3829;50.798;4.358;2023-05-07T00:23:19;17.10;99.90
7576;DHT22;3829;50.798;4.358;2023-05-07T00:25:44;17.10;99.90
7576;DHT22;3829;50.798;4.358;2023-05-07T00:28:10;17.10;99.90
7576;DHT22;3829;50.798;4.358;2023-05-07T00:30:36;17.00;99.90
7576;DHT22;3829;50.798;4.358;2023-05-07T00:33:01;17.00;99.90
7576;DHT22;3829;50.798;4.358;2023-05-07T00:35:28;17.00;99.90
7576;DHT22;3829;50.798;4.358;2023-05-07T00:37:54;17.00;99.90
7576;DHT22;3829;50.798;4.358;2023-05-07T00:40:20;17.00;99.90
7576;DHT22;3829;50.798;4.358;2023-05-07T00:42:46;17.10;99.90
7576;DHT22;3829;50.798;4.358;2023-05-07T00:45:13;17.10;99.90
7576;DHT22;3829;50.798;4.358;2023-05-07T00:47:39;17.00;99.90
7576;DHT22;3829;50.798;4.358;2023-05-07T00:50:06;17.00;99.90
7576;DHT22;3829;50.798;4.358;2023-05-07T00:52:32;17.00;99.90
7576;DHT22;3829;50.798;4.358;2023-05-07T00:55:01;16.90;99.90
7576;DHT22;3829;50.798;4.358;2023-05-07T00:57:30;16.90;99.90
7576;DHT22;3829;50.798;4.358;2023-05-07T00:59:57;16.90;99.90
7576;DHT22;3829;50.798;4.358;2023-05-07T01:02:23;16.90;99.90
7576;DHT22;3829;50.798;4.358;2023-05-07T01:04:49;17.00;99.90
7576;DHT22;3829;50.798;4.358;2023-05-07T01:07:14;16.90;99.90
7576;DHT22;3829;50.798;4.358;2023-05-07T01:09:40;16.80;99.90
7576;DHT22;3829;50.798;4.358;2023-05-07T01:12:07;16.80;99.90
7576;DHT22;3829;50.798;4.358;2023-05-07T01:14:33;16.70;99.90
7576;DHT22;3829;50.798;4.358;2023-05-07T01:16:58;16.70;99.90
7576;DHT22;3829;50.798;4.358;2023-05-07T01:19:24;16.50;99.90
7576;DHT22;3829;50.798;4.358;2023-05-07T01:21:51;16.60;99.90
7576;DHT22;3829;50.798;4.358;2023-05-07T01:24:18;16.60;99.90
7576;DHT22;3829;50.798;4.358;2023-05-07T01:26:44;16.50;99.90
7576;DHT22;3829;50.798;4.358;2023-05-07T01:29:10;16.50;99.90
7576;DHT22;3829;50.798;4.358;2023-05-07T01:31:36;16.40;99.90
7576;DHT22;3829;50.798;4.358;2023-05-07T01:34:03;16.50;99.90
7576;DHT22;3829;50.798;4.358;2023-05-07T01:36:30;16.40;99.90
7576;DHT22;3829;50.798;4.358;2023-05-07T01:38:57;16.50;99.90
7576;DHT22;3829;50.798;4.358;2023-05-07T01:41:23;16.50;99.90
7576;DHT22;3829;50.798;4.358;2023-05-07T01:43:51;16.60;99.90
7576;DHT22;3829;50.798;4.358;2023-05-07T01:46:17;16.60;99.90
7576;DHT22;3829;50.798;4.358;2023-05-07T01:48:44;16.50;99.90
7576;DHT22;3829;50.798;4.358;2023-05-07T01:51:11;16.50;99.90
7576;DHT22;3829;50.798;4.358;2023-05-07T01:53:38;16.50;99.90
7576;DHT22;3829;50.798;4.358;2023-05-07T01:56:05;16.50;99.90
7576;DHT22;3829;50.798;4.358;2023-05-07T01:58:30;16.50;99.90
7576;DHT22;3829;50.798;4.358;2023-05-07T02:00:56;16.50;99.90
7576;DHT22;3829;50.798;4.358;2023-05-07T02:03:22;16.40;99.90
7576;DHT22;3829;50.798;4.358;2023-05-07T02:05:47;16.40;99.90
7576;DHT22;3829;50.798;4.358;2023-05-07T02:08:13;16.30;99.90
7576;DHT22;3829;50.798;4.358;2023-05-07T02:10:38;16.30;99.90
7576;DHT22;3829;50.798;4.358;2023-05-07T02:13:04;16.20;99.90
7576;DHT22;3829;50.798;4.358;2023-05-07T02:15:30;16.20;99.90
7576;DHT22;3829;50.798;4.358;2023-05-07T02:18:00;16.20;99.90
7576;DHT22;3829;50.798;4.358;2023-05-07T02:20:26;16.20;99.90
7576;DHT22;3829;50.798;4.358;2023-05-07T02:22:52;16.10;99.90
7576;DHT22;3829;50.798;4.358;2023-05-07T02:25:17;15.90;99.90
7576;DHT22;3829;50.798;4.358;2023-05-07T02:27:43;15.80;99.90
7576;DHT22;3829;50.798;4.358;2023-05-07T02:30:09;15.80;99.90
7576;DHT22;3829;50.798;4.358;2023-05-07T02:32:35;15.80;99.90
7576;DHT22;3829;50.798;4.358;2023-05-07T02:35:00;15.70;99.90
7576;DHT22;3829;50.798;4.358;2023-05-07T02:37:26;15.70;99.90
7576;DHT22;3829;50.798;4.358;2023-05-07T02:39:51;15.70;99.90
7576;DHT22;3829;50.798;4.358;2023-05-07T02:42:17;15.80;99.90
7576;DHT22;3829;50.798;4.358;2023-05-07T02:44:43;15.70;99.90
7576;DHT22;3829;50.798;4.358;2023-05-07T02:47:08;15.70;99.90
7576;DHT22;3829;50.798;4.358;2023-05-07T02:49:35;15.70;99.90
7576;DHT22;3829;50.798;4.358;2023-05-07T02:52:00;15.70;99.90
7576;DHT22;3829;50.798;4.358;2023-05-07T02:54:26;15.60;99.90
7576;DHT22;3829;50.798;4.358;2023-05-07T02:56:51;15.60;99.90
7576;DHT22;3829;50.798;4.358;2023-05-07T02:59:17;15.70;99.90
7576;DHT22;3829;50.798;4.358;2023-05-07T03:01:42;15.70;99.90
7576;DHT22;3829;50.798;4.358;2023-05-07T03:04:10;15.50;99.90
7576;DHT22;3829;50.798;4.358;2023-05-07T03:06:36;15.50;99.90
7576;DHT22;3829;50.798;4.358;2023-05-07T03:09:02;15.60;99.90
7576;DHT22;3829;50.798;4.358;2023-05-07T03:11:28;15.60;99.90
7576;DHT22;3829;50.798;4.358;2023-05-07T03:13:54;15.70;99.90
7576;DHT22;3829;50.798;4.358;2023-05-07T03:16:19;15.70;99.90
7576;DHT22;3829;50.798;4.358;2023-05-07T03:18:45;15.90;99.90
7576;DHT22;3829;50.798;4.358;2023-05-07T03:21:10;15.90;99.90
7576;DHT22;3829;50.798;4.358;2023-05-07T03:23:36;16.00;99.90
7576;DHT22;3829;50.798;4.358;2023-05-07T03:26:02;16.10;99.90
7576;DHT22;3829;50.798;4.358;2023-05-07T03:28:27;16.20;99.90
7576;DHT22;3829;50.798;4.358;2023-05-07T03:30:53;16.20;99.90
7576;DHT22;3829;50.798;4.358;2023-05-07T03:33:18;16.20;99.90
7576;DHT22;3829;50.798;4.358;2023-05-07T03:35:44;16.30;99.90
7576;DHT22;3829;50.798;4.358;2023-05-07T03:38:09;16.40;99.90
7576;DHT22;3829;50.798;4.358;2023-05-07T03:40:35;16.40;99.90
7576;DHT22;3829;50.798;4.358;2023-05-07T03:43:01;16.40;99.90
7576;DHT22;3829;50.798;4.358;2023-05-07T03:45:26;16.50;99.90
7576;DHT22;3829;50.798;4.358;2023-05-07T03:47:52;16.60;99.90
7576;DHT22;3829;50.798;4.358;2023-05-07T03:50:19;16.60;99.90
7576;DHT22;3829;50.798;4.358;2023-05-07T03:52:44;16.60;99.90
7576;DHT22;3829;50.798;4.358;2023-05-07T03:55:10;16.60;99.90
7576;DHT22;3829;50.798;4.358;2023-05-07T03:57:36;16.60;99.90
7576;DHT22;3829;50.798;4.358;2023-05-07T04:00:02;16.70;99.90
7576;DHT22;3829;50.798;4.358;2023-05-07T04:02:29;16.70;99.90
7576;DHT22;3829;50.798;4.358;2023-05-07T04:04:54;16.60;99.90
7576;DHT22;3829;50.798;4.358;2023-05-07T04:07:20;16.70;99.90
7576;DHT22;3829;50.798;4.358;2023-05-07T04:09:45;16.70;99.90
7576;DHT22;3829;50.798;4.358;2023-05-07T04:12:11;16.70;99.90
7576;DHT22;3829;50.798;4.358;2023-05-07T04:14:37;16.60;99.90
7576;DHT22;3829;50.798;4.358;2023-05-07T04:17:02;16.60;99.90
7576;DHT22;3829;50.798;4.358;2023-05-07T04:19:28;16.50;99.90
7576;DHT22;3829;50.798;4.358;2023-05-07T04:21:53;16.60;99.90
7576;DHT22;3829;50.798;4.358;2023-05-07T04:24:19;16.70;99.90
7576;DHT22;3829;50.798;4.358;2023-05-07T04:26:45;16.70;99.90
7576;DHT22;3829;50.798;4.358;2023-05-07T04:29:11;16.70;99.90
7576;DHT22;3829;50.798;4.358;2023-05-07T04:31:36;16.80;99.90
7576;DHT22;3829;50.798;4.358;2023-05-07T04:34:02;16.90;99.90
7576;DHT22;3829;50.798;4.358;2023-05-07T04:36:27;16.90;99.90
7576;DHT22;3829;50.798;4.358;2023-05-07T04:38:54;16.90;99.90
7576;DHT22;3829;50.798;4.358;2023-05-07T04:41:20;16.90;99.90
7576;DHT22;3829;50.798;4.358;2023-05-07T04:43:46;16.90;99.90
7576;DHT22;3829;50.798;4.358;2023-05-07T04:46:11;17.00;99.90
7576;DHT22;3829;50.798;4.358;2023-05-07T04:48:37;17.00;99.90
7576;DHT22;3829;50.798;4.358;2023-05-07T04:51:02;17.10;99.90
7576;DHT22;3829;50.798;4.358;2023-05-07T04:53:28;17.20;99.90
7576;DHT22;3829;50.798;4.358;2023-05-07T04:55:56;17.10;99.90
7576;DHT22;3829;50.798;4.358;2023-05-07T04:58:22;17.00;99.90
7576;DHT22;3829;50.798;4.358;2023-05-07T05:00:48;17.00;99.90
7576;DHT22;3829;50.798;4.358;2023-05-07T05:03:13;17.00;99.90
7576;DHT22;3829;50.798;4.358;2023-05-07T05:05:39;17.10;99.90
7576;DHT22;3829;50.798;4.358;2023-05-07T05:08:05;17.20;99.90
7576;DHT22;3829;50.798;4.358;2023-05-07T05:10:30;17.20;99.90
7576;DHT22;3829;50.798;4.358;2023-05-07T05:12:56;17.20;99.90
7576;DHT22;3829;50.798;4.358;2023-05-07T05:15:22;17.20;99.90
7576;DHT22;3829;50.798;4.358;2023-05-07T05:17:47;17.30;99.90
7576;DHT22;3829;50.798;4.358;2023-05-07T05:20:13;17.40;99.90
7576;DHT22;3829;50.798;4.358;2023-05-07T05:22:40;17.50;99.90
7576;DHT22;3829;50.798;4.358;2023-05-07T05:25:05;17.60;99.90
7576;DHT22;3829;50.798;4.358;2023-05-07T05:27:31;17.60;99.90
7576;DHT22;3829;50.798;4.358;2023-05-07T05:29:57;17.60;99.90
7576;DHT22;3829;50.798;4.358;2023-05-07T05:32:22;17.60;99.90
7576;DHT22;3829;50.798;4.358;2023-05-07T05:34:48;17.60;99.90
7576;DHT22;3829;50.798;4.358;2023-05-07T05:37:14;17.70;99.90
7576;DHT22;3829;50.798;4.358;2023-05-07T05:39:39;17.80;99.90
7576;DHT22;3829;50.798;4.358;2023-05-07T05:42:05;17.80;99.90
7576;DHT22;3829;50.798;4.358;2023-05-07T05:44:31;17.80;99.90
7576;DHT22;3829;50.798;4.358;2023-05-07T05:46:56;17.70;99.90
7576;DHT22;3829;50.798;4.358;2023-05-07T05:49:24;17.90;99.90
7576;DHT22;3829;50.798;4.358;2023-05-07T05:51:50;17.90;99.90
7576;DHT22;3829;50.798;4.358;2023-05-07T05:54:16;17.80;99.90
7576;DHT22;3829;50.798;4.358;2023-05-07T05:56:42;17.80;99.90
7576;DHT22;3829;50.798;4.358;2023-05-07T05:59:09;17.80;99.90
7576;DHT22;3829;50.798;4.358;2023-05-07T06:01:34;17.70;99.90
7576;DHT22;3829;50.798;4.358;2023-05-07T06:04:00;17.70;99.90
7576;DHT22;3829;50.798;4.358;2023-05-07T06:06:26;17.70;99.90
7576;DHT22;3829;50.798;4.358;2023-05-07T06:08:51;17.70;99.90
7576;DHT22;3829;50.798;4.358;2023-05-07T06:11:17;17.70;99.90
7576;DHT22;3829;50.798;4.358;2023-05-07T06:13:42;17.80;99.90
7576;DHT22;3829;50.798;4.358;2023-05-07T06:16:08;17.80;99.90
7576;DHT22;3829;50.798;4.358;2023-05-07T06:18:33;17.70;99.90
7576;DHT22;3829;50.798;4.358;2023-05-07T06:21:01;17.60;99.90
7576;DHT22;3829;50.798;4.358;2023-05-07T06:23:27;17.50;99.90
7576;DHT22;3829;50.798;4.358;2023-05-07T06:25:52;17.50;99.90
7576;DHT22;3829;50.798;4.358;2023-05-07T06:28:18;17.40;99.90
7576;DHT22;3829;50.798;4.358;2023-05-07T06:30:44;17.30;99.90
7576;DHT22;3829;50.798;4.358;2023-05-07T06:33:10;17.20;99.90
7576;DHT22;3829;50.798;4.358;2023-05-07T06:35:35;17.20;99.90
7576;DHT22;3829;50.798;4.358;2023-05-07T06:38:01;17.00;99.90
7576;DHT22;3829;50.798;4.358;2023-05-07T06:40:27;16.90;99.90
7576;DHT22;3829;50.798;4.358;2023-05-07T06:42:52;16.80;99.90
7576;DHT22;3829;50.798;4.358;2023-05-07T06:45:19;16.70;99.90
7576;DHT22;3829;50.798;4.358;2023-05-07T06:47:45;16.50;99.90
7576;DHT22;3829;50.798;4.358;2023-05-07T06:50:11;16.50;99.90
7576;DHT22;3829;50.798;4.358;2023-05-07T06:52:37;16.50;99.90
7576;DHT22;3829;50.798;4.358;2023-05-07T06:55:03;16.40;99.90
7576;DHT22;3829;50.798;4.358;2023-05-07T06:57:28;16.40;99.90
7576;DHT22;3829;50.798;4.358;2023-05-07T06:59:54;16.20;99.90
7576;DHT22;3829;50.798;4.358;2023-05-07T07:02:19;16.20;99.90
7576;DHT22;3829;50.798;4.358;2023-05-07T07:04:45;16.20;99.90
7576;DHT22;3829;50.798;4.358;2023-05-07T07:07:11;16.10;99.90
7576;DHT22;3829;50.798;4.358;2023-05-07T07:09:36;16.00;99.90
7576;DHT22;3829;50.798;4.358;2023-05-07T07:12:02;16.00;99.90
7576;DHT22;3829;50.798;4.358;2023-05-07T07:14:28;16.00;99.90
7576;DHT22;3829;50.798;4.358;2023-05-07T07:16:53;15.90;99.90
7576;DHT22;3829;50.798;4.358;2023-05-07T07:19:19;15.90;99.90
7576;DHT22;3829;50.798;4.358;2023-05-07T07:21:45;15.90;99.90
7576;DHT22;3829;50.798;4.358;2023-05-07T07:24:14;16.00;99.90
7576;DHT22;3829;50.798;4.358;2023-05-07T07:26:44;15.90;99.90
7576;DHT22;3829;50.798;4.358;2023-05-07T07:29:10;16.00;99.90
7576;DHT22;3829;50.798;4.358;2023-05-07T07:31:35;16.00;99.90
7576;DHT22;3829;50.798;4.358;2023-05-07T07:34:01;16.00;99.90
7576;DHT22;3829;50.798;4.358;2023-05-07T07:36:26;16.00;99.90
7576;DHT22;3829;50.798;4.358;2023-05-07T07:38:53;16.10;99.90
7576;DHT22;3829;50.798;4.358;2023-05-07T07:41:19;16.10;99.90
7576;DHT22;3829;50.798;4.358;2023-05-07T07:43:45;16.20;99.90
7576;DHT22;3829;50.798;4.358;2023-05-07T07:46:12;16.30;99.90
7576;DHT22;3829;50.798;4.358;2023-05-07T07:48:37;16.40;99.90
7576;DHT22;3829;50.798;4.358;2023-05-07T07:51:03;16.50;99.90
7576;DHT22;3829;50.798;4.358;2023-05-07T07:53:28;16.50;99.90
7576;DHT22;3829;50.798;4.358;2023-05-07T07:55:54;16.40;99.90
7576;DHT22;3829;50.798;4.358;2023-05-07T07:58:20;16.40;99.90
7576;DHT22;3829;50.798;4.358;2023-05-07T08:00:47;16.40;99.90
7576;DHT22;3829;50.798;4.358;2023-05-07T08:03:13;16.50;99.90
7576;DHT22;3829;50.798;4.358;2023-05-07T08:05:39;16.40;99.90
7576;DHT22;3829;50.798;4.358;2023-05-07T08:08:05;16.40;99.90
7576;DHT22;3829;50.798;4.358;2023-05-07T08:10:31;16.40;99.90
7576;DHT22;3829;50.798;4.358;2023-05-07T08:13:00;16.40;99.90
7576;DHT22;3829;50.798;4.358;2023-05-07T08:15:26;16.40;99.90
7576;DHT22;3829;50.798;4.358;2023-05-07T08:17:51;16.40;99.90
7576;DHT22;3829;50.798;4.358;2023-05-07T08:20:17;16.40;99.90
7576;DHT22;3829;50.798;4.358;2023-05-07T08:22:42;16.50;99.90
7576;DHT22;3829;50.798;4.358;2023-05-07T08:25:08;16.50;99.90
7576;DHT22;3829;50.798;4.358;2023-05-07T08:27:34;16.60;99.90
7576;DHT22;3829;50.798;4.358;2023-05-07T08:29:59;16.60;99.90
7576;DHT22;3829;50.798;4.358;2023-05-07T08:32:25;16.60;99.90
7576;DHT22;3829;50.798;4.358;2023-05-07T08:34:51;16.50;99.90
7576;DHT22;3829;50.798;4.358;2023-05-07T08:37:16;16.60;99.90
7576;DHT22;3829;50.798;4.358;2023-05-07T08:39:42;16.70;99.90
7576;DHT22;3829;50.798;4.358;2023-05-07T08:42:09;16.80;99.90
7576;DHT22;3829;50.798;4.358;2023-05-07T08:44:38;16.80;99.90
7576;DHT22;3829;50.798;4.358;2023-05-07T08:47:06;16.70;99.90
7576;DHT22;3829;50.798;4.358;2023-05-07T08:49:33;16.50;99.90
7576;DHT22;3829;50.798;4.358;2023-05-07T08:51:59;16.40;99.90
7576;DHT22;3829;50.798;4.358;2023-05-07T08:54:26;16.40;99.90
7576;DHT22;3829;50.798;4.358;2023-05-07T08:56:52;16.60;99.90
7576;DHT22;3829;50.798;4.358;2023-05-07T08:59:18;16.60;99.90
7576;DHT22;3829;50.798;4.358;2023-05-07T09:01:44;16.70;99.90
7576;DHT22;3829;50.798;4.358;2023-05-07T09:04:10;16.80;99.90
7576;DHT22;3829;50.798;4.358;2023-05-07T09:06:35;16.70;99.90
7576;DHT22;3829;50.798;4.358;2023-05-07T09:09:03;16.90;99.90
7576;DHT22;3829;50.798;4.358;2023-05-07T09:11:30;17.00;99.90
7576;DHT22;3829;50.798;4.358;2023-05-07T09:13:57;17.00;99.90
7576;DHT22;3829;50.798;4.358;2023-05-07T09:16:25;17.10;99.90
7576;DHT22;3829;50.798;4.358;2023-05-07T09:18:52;17.30;99.90
7576;DHT22;3829;50.798;4.358;2023-05-07T09:21:19;17.70;99.90
7576;DHT22;3829;50.798;4.358;2023-05-07T09:23:44;17.80;99.90
7576;DHT22;3829;50.798;4.358;2023-05-07T09:26:10;17.60;99.90
7576;DHT22;3829;50.798;4.358;2023-05-07T09:28:39;17.70;99.90
7576;DHT22;3829;50.798;4.358;2023-05-07T09:31:07;18.00;99.90
7576;DHT22;3829;50.798;4.358;2023-05-07T09:33:32;18.20;99.90
7576;DHT22;3829;50.798;4.358;2023-05-07T09:35:58;18.40;99.90
7576;DHT22;3829;50.798;4.358;2023-05-07T09:38:27;18.50;99.90
7576;DHT22;3829;50.798;4.358;2023-05-07T09:41:11;18.70;99.90
7576;DHT22;3829;50.798;4.358;2023-05-07T09:43:38;18.40;99.90
7576;DHT22;3829;50.798;4.358;2023-05-07T09:46:12;18.20;99.90
7576;DHT22;3829;50.798;4.358;2023-05-07T09:48:41;17.80;99.90
7576;DHT22;3829;50.798;4.358;2023-05-07T09:53:48;17.80;99.90
7576;DHT22;3829;50.798;4.358;2023-05-07T09:56:14;17.80;99.90
7576;DHT22;3829;50.798;4.358;2023-05-07T09:58:41;17.80;99.90
7576;DHT22;3829;50.798;4.358;2023-05-07T10:01:10;17.70;99.90
7576;DHT22;3829;50.798;4.358;2023-05-07T10:03:36;17.80;99.90
7576;DHT22;3829;50.798;4.358;2023-05-07T10:06:03;17.80;99.90
7576;DHT22;3829;50.798;4.358;2023-05-07T10:08:30;18.00;99.90
7576;DHT22;3829;50.798;4.358;2023-05-07T10:10:56;18.00;99.90
7576;DHT22;3829;50.798;4.358;2023-05-07T10:13:21;18.10;99.90
7576;DHT22;3829;50.798;4.358;2023-05-07T10:15:47;18.20;99.90
7576;DHT22;3829;50.798;4.358;2023-05-07T10:18:13;18.10;99.90
7576;DHT22;3829;50.798;4.358;2023-05-07T10:20:40;18.10;99.90
7576;DHT22;3829;50.798;4.358;2023-05-07T10:23:08;18.10;99.90
7576;DHT22;3829;50.798;4.358;2023-05-07T10:25:37;18.10;99.90
7576;DHT22;3829;50.798;4.358;2023-05-07T10:28:06;18.00;99.90
7576;DHT22;3829;50.798;4.358;2023-05-07T10:30:58;18.10;99.90
7576;DHT22;3829;50.798;4.358;2023-05-07T10:33:29;18.00;99.90
7576;DHT22;3829;50.798;4.358;2023-05-07T10:35:59;18.00;99.90
7576;DHT22;3829;50.798;4.358;2023-05-07T10:38:27;18.20;99.90
7576;DHT22;3829;50.798;4.358;2023-05-07T10:40:53;18.30;99.90
7576;DHT22;3829;50.798;4.358;2023-05-07T10:43:18;18.30;99.90
7576;DHT22;3829;50.798;4.358;2023-05-07T10:51:26;18.20;99.90
7576;DHT22;3829;50.798;4.358;2023-05-07T10:54:20;18.20;99.90
7576;DHT22;3829;50.798;4.358;2023-05-07T10:56:46;18.30;99.90
7576;DHT22;3829;50.798;4.358;2023-05-07T10:59:33;18.30;99.90
7576;DHT22;3829;50.798;4.358;2023-05-07T11:02:02;18.50;99.90
7576;DHT22;3829;50.798;4.358;2023-05-07T11:04:29;18.30;99.90
7576;DHT22;3829;50.798;4.358;2023-05-07T11:07:20;18.00;99.90
7576;DHT22;3829;50.798;4.358;2023-05-07T11:09:57;18.20;99.90
7576;DHT22;3829;50.798;4.358;2023-05-07T11:12:46;18.40;99.90
7576;DHT22;3829;50.798;4.358;2023-05-07T11:15:13;18.50;99.90
7576;DHT22;3829;50.798;4.358;2023-05-07T11:17:59;18.60;99.90
7576;DHT22;3829;50.798;4.358;2023-05-07T11:26:15;18.40;99.90
7576;DHT22;3829;50.798;4.358;2023-05-07T11:28:43;18.50;99.90
7576;DHT22;3829;50.798;4.358;2023-05-07T11:31:09;18.50;99.90
7576;DHT22;3829;50.798;4.358;2023-05-07T11:33:35;18.70;99.90
7576;DHT22;3829;50.798;4.358;2023-05-07T11:36:03;18.70;99.90
7576;DHT22;3829;50.798;4.358;2023-05-07T11:38:30;18.80;99.90
7576;DHT22;3829;50.798;4.358;2023-05-07T11:40:57;19.00;99.90
7576;DHT22;3829;50.798;4.358;2023-05-07T11:43:24;19.00;99.90
7576;DHT22;3829;50.798;4.358;2023-05-07T11:45:50;19.00;99.90
7576;DHT22;3829;50.798;4.358;2023-05-07T11:48:16;19.00;99.90
7576;DHT22;3829;50.798;4.358;2023-05-07T11:50:52;19.20;99.90
7576;DHT22;3829;50.798;4.358;2023-05-07T11:53:18;19.30;99.90
7576;DHT22;3829;50.798;4.358;2023-05-07T11:55:45;19.40;99.90
7576;DHT22;3829;50.798;4.358;2023-05-07T11:58:12;19.40;99.90
7576;DHT22;3829;50.798;4.358;2023-05-07T12:00:53;19.50;99.90
7576;DHT22;3829;50.798;4.358;2023-05-07T12:03:20;19.30;99.90
7576;DHT22;3829;50.798;4.358;2023-05-07T12:05:47;19.50;99.90
7576;DHT22;3829;50.798;4.358;2023-05-07T12:08:14;19.80;99.90
7576;DHT22;3829;50.798;4.358;2023-05-07T12:10:42;19.90;99.90
7576;DHT22;3829;50.798;4.358;2023-05-07T12:13:25;19.90;99.90
7576;DHT22;3829;50.798;4.358;2023-05-07T12:15:52;19.90;99.90
7576;DHT22;3829;50.798;4.358;2023-05-07T12:18:17;19.80;99.90
7576;DHT22;3829;50.798;4.358;2023-05-07T12:20:43;19.60;99.90
7576;DHT22;3829;50.798;4.358;2023-05-07T12:23:10;19.60;99.90
7576;DHT22;3829;50.798;4.358;2023-05-07T12:25:38;19.70;99.90
7576;DHT22;3829;50.798;4.358;2023-05-07T12:28:04;19.80;99.90
7576;DHT22;3829;50.798;4.358;2023-05-07T12:30:32;20.00;99.90
7576;DHT22;3829;50.798;4.358;2023-05-07T12:32:58;20.10;99.90
7576;DHT22;3829;50.798;4.358;2023-05-07T12:35:28;20.20;99.90
7576;DHT22;3829;50.798;4.358;2023-05-07T12:37:56;20.20;99.90
7576;DHT22;3829;50.798;4.358;2023-05-07T12:40:22;20.20;99.90
7576;DHT22;3829;50.798;4.358;2023-05-07T12:42:52;20.10;99.90
7576;DHT22;3829;50.798;4.358;2023-05-07T12:45:19;20.00;99.90
7576;DHT22;3829;50.798;4.358;2023-05-07T12:47:46;19.90;99.90
7576;DHT22;3829;50.798;4.358;2023-05-07T12:50:13;19.80;99.90
7576;DHT22;3829;50.798;4.358;2023-05-07T12:52:39;19.70;99.90
7576;DHT22;3829;50.798;4.358;2023-05-07T12:55:07;19.60;99.90
7576;DHT22;3829;50.798;4.358;2023-05-07T12:57:45;19.80;99.90
7576;DHT22;3829;50.798;4.358;2023-05-07T13:00:11;20.00;99.90
7576;DHT22;3829;50.798;4.358;2023-05-07T13:02:39;20.30;99.90
7576;DHT22;3829;50.798;4.358;2023-05-07T13:05:05;20.30;99.90
7576;DHT22;3829;50.798;4.358;2023-05-07T13:07:30;20.20;99.90
7576;DHT22;3829;50.798;4.358;2023-05-07T13:09:56;19.90;99.90
7576;DHT22;3829;50.798;4.358;2023-05-07T13:12:22;19.50;99.90
7576;DHT22;3829;50.798;4.358;2023-05-07T13:14:47;19.40;99.90
7576;DHT22;3829;50.798;4.358;2023-05-07T13:17:13;19.40;99.90
7576;DHT22;3829;50.798;4.358;2023-05-07T13:19:38;19.60;99.90
7576;DHT22;3829;50.798;4.358;2023-05-07T13:22:04;19.60;99.90
7576;DHT22;3829;50.798;4.358;2023-05-07T13:24:30;19.60;99.90
7576;DHT22;3829;50.798;4.358;2023-05-07T13:26:55;19.80;99.90
7576;DHT22;3829;50.798;4.358;2023-05-07T13:29:21;19.90;99.90
7576;DHT22;3829;50.798;4.358;2023-05-07T13:31:54;20.00;99.90
7576;DHT22;3829;50.798;4.358;2023-05-07T13:34:20;20.20;99.90
7576;DHT22;3829;50.798;4.358;2023-05-07T13:36:45;20.20;99.90
7576;DHT22;3829;50.798;4.358;2023-05-07T13:39:11;20.20;99.90
7576;DHT22;3829;50.798;4.358;2023-05-07T13:41:36;20.00;99.90
7576;DHT22;3829;50.798;4.358;2023-05-07T13:44:02;19.90;99.90
7576;DHT22;3829;50.798;4.358;2023-05-07T13:46:28;19.90;99.90
7576;DHT22;3829;50.798;4.358;2023-05-07T13:48:55;20.00;99.90
7576;DHT22;3829;50.798;4.358;2023-05-07T13:51:21;19.80;99.90
7576;DHT22;3829;50.798;4.358;2023-05-07T13:53:46;19.80;99.90
7576;DHT22;3829;50.798;4.358;2023-05-07T13:56:12;19.80;99.90
7576;DHT22;3829;50.798;4.358;2023-05-07T13:58:38;19.90;99.90
7576;DHT22;3829;50.798;4.358;2023-05-07T14:01:04;19.90;99.90
7576;DHT22;3829;50.798;4.358;2023-05-07T14:03:29;19.80;99.90
7576;DHT22;3829;50.798;4.358;2023-05-07T14:05:57;19.70;99.90
7576;DHT22;3829;50.798;4.358;2023-05-07T14:08:25;19.80;99.90
7576;DHT22;3829;50.798;4.358;2023-05-07T14:10:51;19.60;99.90
7576;DHT22;3829;50.798;4.358;2023-05-07T14:13:17;19.60;99.90
7576;DHT22;3829;50.798;4.358;2023-05-07T14:15:42;19.50;99.90
7576;DHT22;3829;50.798;4.358;2023-05-07T14:18:12;19.40;99.90
7576;DHT22;3829;50.798;4.358;2023-05-07T14:20:38;19.30;99.90
7576;DHT22;3829;50.798;4.358;2023-05-07T14:23:03;19.40;99.90
7576;DHT22;3829;50.798;4.358;2023-05-07T14:25:29;19.40;99.90
7576;DHT22;3829;50.798;4.358;2023-05-07T14:27:55;19.50;99.90
7576;DHT22;3829;50.798;4.358;2023-05-07T14:30:20;19.50;99.90
7576;DHT22;3829;50.798;4.358;2023-05-07T14:32:47;19.50;99.90
7576;DHT22;3829;50.798;4.358;2023-05-07T14:35:13;19.60;99.90
7576;DHT22;3829;50.798;4.358;2023-05-07T14:37:38;19.60;99.90
7576;DHT22;3829;50.798;4.358;2023-05-07T14:40:05;19.60;99.90
7576;DHT22;3829;50.798;4.358;2023-05-07T14:42:30;19.40;99.90
7576;DHT22;3829;50.798;4.358;2023-05-07T14:44:56;19.20;99.90
7576;DHT22;3829;50.798;4.358;2023-05-07T14:47:21;19.30;99.90
7576;DHT22;3829;50.798;4.358;2023-05-07T14:49:47;19.10;99.90
7576;DHT22;3829;50.798;4.358;2023-05-07T14:52:13;19.20;99.90
7576;DHT22;3829;50.798;4.358;2023-05-07T14:54:38;19.40;99.90
7576;DHT22;3829;50.798;4.358;2023-05-07T14:57:05;19.40;99.90
7576;DHT22;3829;50.798;4.358;2023-05-07T14:59:31;19.60;99.90
7576;DHT22;3829;50.798;4.358;2023-05-07T15:01:57;19.60;99.90
7576;DHT22;3829;50.798;4.358;2023-05-07T15:04:24;19.50;99.90
7576;DHT22;3829;50.798;4.358;2023-05-07T15:06:50;19.70;99.90
7576;DHT22;3829;50.798;4.358;2023-05-07T15:09:16;20.00;99.90
7576;DHT22;3829;50.798;4.358;2023-05-07T15:11:42;20.20;99.90
7576;DHT22;3829;50.798;4.358;2023-05-07T15:14:07;20.20;99.90
7576;DHT22;3829;50.798;4.358;2023-05-07T15:16:33;20.20;99.90
7576;DHT22;3829;50.798;4.358;2023-05-07T15:18:59;20.00;99.90
7576;DHT22;3829;50.798;4.358;2023-05-07T15:21:25;20.00;99.90
7576;DHT22;3829;50.798;4.358;2023-05-07T15:23:52;19.80;99.90
7576;DHT22;3829;50.798;4.358;2023-05-07T15:26:17;19.80;99.90
7576;DHT22;3829;50.798;4.358;2023-05-07T15:28:43;19.80;99.90
7576;DHT22;3829;50.798;4.358;2023-05-07T15:31:09;19.70;99.90
7576;DHT22;3829;50.798;4.358;2023-05-07T15:33:35;19.50;99.90
7576;DHT22;3829;50.798;4.358;2023-05-07T15:36:00;19.40;99.90
7576;DHT22;3829;50.798;4.358;2023-05-07T15:38:28;19.40;99.90
7576;DHT22;3829;50.798;4.358;2023-05-07T15:40:54;19.40;99.90
7576;DHT22;3829;50.798;4.358;2023-05-07T15:43:20;19.60;99.90
7576;DHT22;3829;50.798;4.358;2023-05-07T15:45:45;19.70;99.90
7576;DHT22;3829;50.798;4.358;2023-05-07T15:48:11;19.70;99.90
7576;DHT22;3829;50.798;4.358;2023-05-07T15:50:37;19.60;99.90
7576;DHT22;3829;50.798;4.358;2023-05-07T15:53:03;19.70;99.90
7576;DHT22;3829;50.798;4.358;2023-05-07T15:55:30;19.80;99.90
7576;DHT22;3829;50.798;4.358;2023-05-07T15:57:57;19.90;99.90
7576;DHT22;3829;50.798;4.358;2023-05-07T16:00:24;20.00;99.90
7576;DHT22;3829;50.798;4.358;2023-05-07T16:02:51;19.90;99.90
7576;DHT22;3829;50.798;4.358;2023-05-07T16:05:17;20.00;99.90
7576;DHT22;3829;50.798;4.358;2023-05-07T16:07:42;19.90;99.90
7576;DHT22;3829;50.798;4.358;2023-05-07T16:10:09;19.90;99.90
7576;DHT22;3829;50.798;4.358;2023-05-07T16:12:35;19.80;99.90